createdAt,value
2022-08-02T00:00:40.391Z,101485.40
2022-08-02T00:03:09.375Z,101485.00
2022-08-02T00:05:37.308Z,101488.60
2022-08-02T00:08:05.280Z,101494.80
2022-08-02T00:10:33.840Z,101496.60
2022-08-02T00:13:01.928Z,101491.60
2022-08-02T00:15:29.577Z,101493.20
2022-08-02T00:17:57.338Z,101496.80
2022-08-02T00:20:25.001Z,101496.00
2022-08-02T00:22:53.344Z,101495.60
2022-08-02T00:25:21.615Z,101506.80
2022-08-02T00:27:49.283Z,101502.40
2022-08-02T00:30:16.935Z,101503.40
2022-08-02T00:32:44.966Z,101502.80
2022-08-02T00:35:12.697Z,101504.40
2022-08-02T00:37:42.573Z,101505.20
2022-08-02T00:40:12.158Z,101498.80
2022-08-02T00:42:41.212Z,101497.80
2022-08-02T00:45:09.775Z,101498.00
2022-08-02T00:47:37.521Z,101498.80
2022-08-02T00:50:07.401Z,101498.20
2022-08-02T00:52:35.449Z,101496.00
2022-08-02T00:55:03.777Z,101496.00
2022-08-02T00:57:31.489Z,101495.20
2022-08-02T00:59:59.181Z,101497.80
2022-08-02T01:02:26.974Z,101495.40
2022-08-02T01:04:54.690Z,101496.40
2022-08-02T01:07:22.646Z,101488.20
2022-08-02T01:09:50.670Z,101488.40
2022-08-02T01:12:18.416Z,101492.40
2022-08-02T01:14:52.663Z,101494.80
2022-08-02T01:17:26.554Z,101495.60
2022-08-02T01:20:04.772Z,101494.20
2022-08-02T01:23:06.346Z,101489.40
2022-08-02T01:26:27.114Z,101486.60
2022-08-02T01:29:10.098Z,101498.00
2022-08-02T01:31:58.499Z,101494.60
2022-08-02T01:34:54.516Z,101486.00
2022-08-02T01:37:41.078Z,101492.00
2022-08-02T01:40:14.239Z,101494.60
2022-08-02T01:42:49.902Z,101493.80
2022-08-02T01:45:21.018Z,101491.80
2022-08-02T01:47:51.637Z,101490.80
2022-08-02T01:50:27.553Z,101493.00
2022-08-02T01:52:59.149Z,101490.00
2022-08-02T01:55:57.601Z,101494.40
2022-08-02T01:58:28.622Z,101493.20
2022-08-02T02:01:01.186Z,101488.20
2022-08-02T02:03:33.728Z,101491.20
2022-08-02T02:06:05.707Z,101491.60
2022-08-02T02:08:40.533Z,101499.60
2022-08-02T02:12:05.939Z,101500.60
2022-08-02T02:14:02.082Z,101498.40
2022-08-02T02:16:32.155Z,101495.00
2022-08-02T02:19:04.105Z,101496.20
2022-08-02T02:21:32.206Z,101497.00
2022-08-02T02:24:04.331Z,101499.80
2022-08-02T02:26:37.828Z,101494.60
2022-08-02T02:29:11.966Z,101498.40
2022-08-02T02:31:44.248Z,101502.20
2022-08-02T02:34:44.529Z,101502.40
2022-08-02T02:37:22.424Z,101507.40
2022-08-02T02:39:55.011Z,101510.00
2022-08-02T02:42:30.336Z,101512.40
2022-08-02T02:45:00.218Z,101503.20
2022-08-02T02:47:40.338Z,101499.40
2022-08-02T02:50:11.435Z,101505.60
2022-08-02T02:52:41.044Z,101501.00
2022-08-02T02:55:11.035Z,101499.60
2022-08-02T02:57:40.576Z,101493.20
2022-08-02T03:00:14.714Z,101492.40
2022-08-02T03:02:45.415Z,101493.00
2022-08-02T03:05:14.972Z,101485.40
2022-08-02T03:07:42.707Z,101481.00
2022-08-02T03:10:11.720Z,101485.80
2022-08-02T03:12:39.509Z,101477.80
2022-08-02T03:15:13.085Z,101472.40
2022-08-02T03:17:46.332Z,101477.80
2022-08-02T03:20:19.281Z,101469.80
2022-08-02T03:22:48.282Z,101470.40
2022-08-02T03:25:17.857Z,101471.40
2022-08-02T03:27:46.802Z,101469.00
2022-08-02T03:30:15.536Z,101461.40
2022-08-02T03:32:47.127Z,101464.80
2022-08-02T03:35:23.410Z,101466.40
2022-08-02T03:37:56.674Z,101460.60
2022-08-02T03:40:27.018Z,101461.20
2022-08-02T03:42:55.720Z,101463.80
2022-08-02T03:45:26.089Z,101467.60
2022-08-02T03:47:54.024Z,101464.00
2022-08-02T03:50:27.907Z,101465.60
2022-08-02T03:52:56.966Z,101470.40
2022-08-02T03:55:24.735Z,101465.20
2022-08-02T03:57:52.623Z,101468.20
2022-08-02T04:00:22.899Z,101468.40
2022-08-02T04:02:51.059Z,101472.00
2022-08-02T04:05:20.157Z,101470.80
2022-08-02T04:08:34.179Z,101465.80
2022-08-02T04:10:58.296Z,101466.20
2022-08-02T04:13:36.076Z,101466.40
2022-08-02T04:16:22.802Z,101464.40
2022-08-02T04:18:58.556Z,101465.00
2022-08-02T04:21:48.658Z,101470.00
2022-08-02T04:24:32.360Z,101461.20
2022-08-02T04:27:06.528Z,101464.80
2022-08-02T04:29:36.636Z,101466.20
2022-08-02T04:32:07.098Z,101471.60
2022-08-02T04:34:35.413Z,101479.20
2022-08-02T04:37:03.292Z,101472.00
2022-08-02T04:39:31.172Z,101470.00
2022-08-02T04:41:59.021Z,101460.60
2022-08-02T04:44:26.780Z,101467.00
2022-08-02T04:46:55.945Z,101478.00
2022-08-02T04:49:23.845Z,101480.60
2022-08-02T04:51:53.142Z,101481.40
2022-08-02T04:54:21.582Z,101470.40
2022-08-02T04:56:49.280Z,101470.00
2022-08-02T04:59:16.941Z,101467.20
2022-08-02T05:01:44.663Z,101465.00
2022-08-02T05:04:12.681Z,101456.80
2022-08-02T05:06:40.366Z,101450.20
2022-08-02T05:09:08.080Z,101443.00
2022-08-02T05:11:37.384Z,101442.00
2022-08-02T05:14:06.093Z,101447.40
2022-08-02T05:16:34.098Z,101456.00
2022-08-02T05:19:03.177Z,101464.80
2022-08-02T05:21:32.071Z,101471.40
2022-08-02T05:24:00.026Z,101471.20
2022-08-02T05:26:30.377Z,101472.60
2022-08-02T05:28:58.188Z,101473.80
2022-08-02T05:31:25.946Z,101469.40
2022-08-02T05:33:53.804Z,101464.20
2022-08-02T05:36:21.822Z,101463.20
2022-08-02T05:38:53.252Z,101458.80
2022-08-02T05:41:32.689Z,101464.00
2022-08-02T05:44:00.505Z,101459.40
2022-08-02T05:46:28.233Z,101461.40
2022-08-02T05:48:56.169Z,101456.00
2022-08-02T05:51:43.152Z,101446.40
2022-08-02T05:54:31.391Z,101450.20
2022-08-02T05:57:10.467Z,101452.00
2022-08-02T06:00:17.546Z,101452.80
2022-08-02T06:02:54.297Z,101446.60
2022-08-02T06:05:23.358Z,101438.60
2022-08-02T06:07:55.123Z,101432.40
2022-08-02T06:10:24.293Z,101433.80
2022-08-02T06:13:03.679Z,101435.60
2022-08-02T06:15:32.074Z,101433.80
2022-08-02T06:18:01.484Z,101428.40
2022-08-02T06:20:37.730Z,101429.60
2022-08-02T06:23:13.318Z,101437.60
2022-08-02T06:25:49.778Z,101438.60
2022-08-02T06:28:21.011Z,101438.80
2022-08-02T06:30:48.888Z,101438.40
2022-08-02T06:33:17.181Z,101439.00
2022-08-02T06:36:10.198Z,101429.20
2022-08-02T06:38:49.810Z,101433.60
2022-08-02T06:41:20.034Z,101443.00
2022-08-02T06:44:27.370Z,101450.60
2022-08-02T06:47:11.295Z,101457.40
2022-08-02T06:49:51.347Z,101452.00
2022-08-02T06:52:29.784Z,101450.40
2022-08-02T06:55:05.701Z,101448.00
2022-08-02T06:57:34.141Z,101452.20
2022-08-02T07:00:06.905Z,101443.20
2022-08-02T07:02:36.723Z,101442.60
2022-08-02T07:05:06.089Z,101443.00
2022-08-02T07:07:34.498Z,101434.40
2022-08-02T07:10:02.251Z,101432.40
2022-08-02T07:12:33.811Z,101435.60
2022-08-02T07:15:05.473Z,101426.00
2022-08-02T07:17:34.680Z,101423.20
2022-08-02T07:20:04.840Z,101415.00
2022-08-02T07:22:32.862Z,101403.80
2022-08-02T07:25:00.789Z,101394.80
2022-08-02T07:27:29.339Z,101393.00
2022-08-02T07:29:57.811Z,101385.60
2022-08-02T07:32:30.330Z,101386.00
2022-08-02T07:35:00.175Z,101385.80
2022-08-02T07:37:54.204Z,101392.60
2022-08-02T07:40:23.808Z,101392.80
2022-08-02T07:43:02.419Z,101397.80
2022-08-02T07:45:36.088Z,101392.20
2022-08-02T07:48:04.950Z,101395.00
2022-08-02T07:50:32.796Z,101398.80
2022-08-02T07:53:02.574Z,101396.00
2022-08-02T07:55:40.375Z,101393.20
2022-08-02T07:58:12.890Z,101400.40
2022-08-02T08:00:44.414Z,101396.40
2022-08-02T08:03:12.896Z,101399.40
2022-08-02T08:05:40.988Z,101393.00
2022-08-02T08:08:13.620Z,101388.60
2022-08-02T08:10:45.241Z,101390.40
2022-08-02T08:13:13.600Z,101397.60
2022-08-02T08:15:41.780Z,101399.20
2022-08-02T08:18:21.836Z,101399.20
2022-08-02T08:20:50.276Z,101396.80
2022-08-02T08:23:18.419Z,101392.40
2022-08-02T08:25:46.370Z,101396.20
2022-08-02T08:28:14.351Z,101396.60
2022-08-02T08:30:42.772Z,101396.80
2022-08-02T08:33:10.473Z,101391.20
2022-08-02T08:35:38.156Z,101396.40
2022-08-02T08:38:07.879Z,101401.20
2022-08-02T08:40:37.275Z,101398.80
2022-08-02T08:43:06.070Z,101397.20
2022-08-02T08:45:34.348Z,101398.40
2022-08-02T08:48:13.916Z,101404.80
2022-08-02T08:51:11.765Z,101400.80
2022-08-02T08:53:49.633Z,101394.60
2022-08-02T08:56:18.265Z,101396.20
2022-08-02T08:58:49.605Z,101396.20
2022-08-02T09:01:17.856Z,101395.20
2022-08-02T09:03:46.359Z,101389.80
2022-08-02T09:06:14.772Z,101387.00
2022-08-02T09:08:42.964Z,101382.60
2022-08-02T09:11:22.745Z,101388.00
2022-08-02T09:13:59.605Z,101385.40
2022-08-02T09:16:37.420Z,101387.00
2022-08-02T09:19:26.890Z,101382.40
2022-08-02T09:22:09.380Z,101380.00
2022-08-02T09:24:47.933Z,101387.80
2022-08-02T09:27:23.001Z,101375.80
2022-08-02T09:30:12.258Z,101373.80
2022-08-02T09:32:48.145Z,101363.00
2022-08-02T09:36:05.882Z,101365.20
2022-08-02T09:38:29.644Z,101367.00
2022-08-02T09:40:59.099Z,101364.80
2022-08-02T09:44:03.714Z,101370.40
2022-08-02T09:46:37.891Z,101371.60
2022-08-02T09:49:13.462Z,101368.80
2022-08-02T09:51:54.367Z,101362.80
2022-08-02T09:54:29.098Z,101364.40
2022-08-02T09:57:01.888Z,101367.00
2022-08-02T09:59:30.948Z,101366.20
2022-08-02T10:02:01.577Z,101356.00
2022-08-02T10:04:34.271Z,101347.40
2022-08-02T10:07:04.613Z,101343.20
2022-08-02T10:09:33.540Z,101336.60
2022-08-02T10:12:01.816Z,101335.00
2022-08-02T10:14:35.323Z,101328.00
2022-08-02T10:17:05.259Z,101319.80
2022-08-02T10:20:00.018Z,101311.00
2022-08-02T10:22:25.866Z,101314.40
2022-08-02T10:24:55.079Z,101312.20
2022-08-02T10:27:25.861Z,101313.00
2022-08-02T10:30:00.049Z,101311.80
2022-08-02T10:32:34.599Z,101307.40
2022-08-02T10:35:20.133Z,101309.00
2022-08-02T10:38:01.748Z,101308.60
2022-08-02T10:40:55.285Z,101307.00
2022-08-02T10:43:31.944Z,101304.80
2022-08-02T10:46:30.351Z,101300.60
2022-08-02T10:52:02.511Z,101301.40
2022-08-02T10:54:37.067Z,101297.00
2022-08-02T10:57:17.456Z,101290.40
2022-08-02T10:59:45.801Z,101300.40
2022-08-02T11:02:14.664Z,101294.80
2022-08-02T11:04:42.464Z,101299.20
2022-08-02T11:07:17.900Z,101301.20
2022-08-02T11:09:51.038Z,101304.00
2022-08-02T11:12:21.037Z,101309.60
2022-08-02T11:15:07.698Z,101308.80
2022-08-02T11:17:56.820Z,101316.60
2022-08-02T11:20:27.209Z,101313.40
2022-08-02T11:23:16.146Z,101308.20
2022-08-02T11:26:03.144Z,101303.40
2022-08-02T11:28:32.815Z,101301.20
2022-08-02T11:31:02.803Z,101295.20
2022-08-02T11:33:33.743Z,101286.20
2022-08-02T11:36:07.352Z,101284.00
2022-08-02T11:38:35.508Z,101280.20
2022-08-02T11:41:05.941Z,101279.40
2022-08-02T11:43:38.552Z,101278.40
2022-08-02T11:46:15.745Z,101279.00
2022-08-02T11:48:44.533Z,101274.00
2022-08-02T11:51:18.537Z,101276.80
2022-08-02T11:53:53.069Z,101275.00
2022-08-02T11:56:35.436Z,101272.00
2022-08-02T11:59:14.497Z,101272.40
2022-08-02T12:01:45.501Z,101264.00
2022-08-02T12:04:22.436Z,101272.60
2022-08-02T12:06:57.132Z,101269.80
2022-08-02T12:09:28.508Z,101274.00
2022-08-02T12:11:58.087Z,101278.60
2022-08-02T12:14:28.862Z,101270.60
2022-08-02T12:17:16.410Z,101277.80
2022-08-02T12:19:44.818Z,101288.00
2022-08-02T12:22:18.645Z,101294.60
2022-08-02T12:24:52.542Z,101295.00
2022-08-02T12:27:32.344Z,101305.00
2022-08-02T12:30:11.216Z,101300.80
2022-08-02T12:32:40.867Z,101306.60
2022-08-02T12:35:26.591Z,101311.80
2022-08-02T12:37:56.428Z,101324.60
2022-08-02T12:40:32.994Z,101322.40
2022-08-02T12:43:05.781Z,101319.20
2022-08-02T12:45:54.355Z,101319.40
2022-08-02T12:48:56.584Z,101318.60
2022-08-02T12:51:55.597Z,101306.80
2022-08-02T12:54:41.155Z,101309.00
2022-08-02T12:57:13.750Z,101311.60
2022-08-02T12:59:45.244Z,101306.20
2022-08-02T13:02:14.555Z,101305.20
2022-08-02T13:04:48.998Z,101293.60
2022-08-02T13:07:19.664Z,101286.60
2022-08-02T13:09:48.579Z,101279.80
2022-08-02T13:12:17.045Z,101270.00
2022-08-02T13:14:44.946Z,101269.80
2022-08-02T13:17:12.879Z,101265.20
2022-08-02T13:19:42.251Z,101263.60
2022-08-02T13:22:10.636Z,101261.80
2022-08-02T13:24:56.221Z,101259.00
2022-08-02T13:27:26.929Z,101259.40
2022-08-02T13:29:57.200Z,101259.60
2022-08-02T13:32:28.969Z,101261.60
2022-08-02T13:34:58.308Z,101262.20
2022-08-02T13:37:26.786Z,101258.00
2022-08-02T13:40:19.825Z,101254.00
2022-08-02T13:42:42.610Z,101253.00
2022-08-02T13:45:13.279Z,101251.20
2022-08-02T13:48:03.948Z,101245.40
2022-08-02T13:50:33.146Z,101238.00
2022-08-02T13:53:00.948Z,101232.60
2022-08-02T13:55:29.291Z,101227.20
2022-08-02T13:57:57.777Z,101222.40
2022-08-02T14:00:35.615Z,101219.80
2022-08-02T14:03:08.618Z,101205.60
2022-08-02T14:05:48.638Z,101201.40
2022-08-02T14:08:19.667Z,101196.40
2022-08-02T14:10:49.709Z,101188.20
2022-08-02T14:13:19.337Z,101185.80
2022-08-02T14:15:48.551Z,101188.80
2022-08-02T14:18:16.813Z,101186.00
2022-08-02T14:20:46.123Z,101182.80
2022-08-02T14:23:14.471Z,101180.20
2022-08-02T14:25:42.542Z,101168.60
2022-08-02T14:28:10.321Z,101160.00
2022-08-02T14:30:38.284Z,101150.80
2022-08-02T14:33:06.093Z,101137.40
2022-08-02T14:35:34.128Z,101134.40
2022-08-02T14:38:02.691Z,101133.60
2022-08-02T14:40:32.075Z,101125.40
2022-08-02T14:43:01.625Z,101122.20
2022-08-02T14:45:39.978Z,101116.60
2022-08-02T14:48:12.041Z,101113.60
2022-08-02T14:50:39.853Z,101108.00
2022-08-02T14:53:12.445Z,101097.80
2022-08-02T14:55:42.792Z,101099.80
2022-08-02T14:58:12.406Z,101096.20
2022-08-02T15:00:41.462Z,101082.60
2022-08-02T15:03:11.276Z,101081.40
2022-08-02T15:05:40.095Z,101082.20
2022-08-02T15:08:08.140Z,101078.00
2022-08-02T15:10:36.413Z,101076.60
2022-08-02T15:13:04.707Z,101079.40
2022-08-02T15:15:32.588Z,101074.40
2022-08-02T15:18:12.349Z,101070.00
2022-08-02T15:20:42.533Z,101062.40
2022-08-02T15:23:25.940Z,101057.00
2022-08-02T15:26:06.854Z,101052.20
2022-08-02T15:28:35.466Z,101053.20
2022-08-02T15:31:03.384Z,101047.40
2022-08-02T15:33:31.066Z,101036.60
2022-08-02T15:35:58.872Z,101023.60
2022-08-02T15:38:26.700Z,101012.00
2022-08-02T15:40:54.364Z,101009.00
2022-08-02T15:43:22.117Z,101008.80
2022-08-02T15:45:49.947Z,101008.40
2022-08-02T15:48:17.741Z,101003.60
2022-08-02T15:50:45.541Z,100994.00
2022-08-02T15:53:13.208Z,100983.00
2022-08-02T15:56:04.142Z,100983.20
2022-08-02T15:58:28.975Z,100978.80
2022-08-02T16:00:56.785Z,100981.40
2022-08-02T16:03:24.551Z,100982.80
2022-08-02T16:05:52.482Z,100977.60
2022-08-02T16:08:20.127Z,100973.60
2022-08-02T16:10:47.846Z,100966.80
2022-08-02T16:13:38.369Z,100959.20
2022-08-02T16:16:08.719Z,100963.60
2022-08-02T16:18:38.240Z,100951.00
2022-08-02T16:21:05.929Z,100948.60
2022-08-02T16:23:58.611Z,100947.60
2022-08-02T16:26:22.331Z,100949.00
2022-08-02T16:28:50.021Z,100944.80
2022-08-02T16:31:17.899Z,100942.20
2022-08-02T16:33:46.065Z,100940.40
2022-08-02T16:36:15.048Z,100935.40
2022-08-02T16:38:47.132Z,100934.20
2022-08-02T16:41:16.311Z,100927.00
2022-08-02T16:43:44.527Z,100923.80
2022-08-02T16:46:12.539Z,100913.60
2022-08-02T16:48:40.934Z,100918.80
2022-08-02T16:51:13.619Z,100914.00
2022-08-02T16:53:59.999Z,100906.80
2022-08-02T16:56:29.533Z,100908.40
2022-08-02T16:58:59.641Z,100912.60
2022-08-02T17:02:03.270Z,100915.00
2022-08-02T17:04:16.335Z,100913.00
2022-08-02T17:06:47.775Z,100909.80
2022-08-02T17:10:02.317Z,100908.40
2022-08-02T17:12:16.060Z,100901.60
2022-08-02T17:14:55.038Z,100892.40
2022-08-02T17:17:34.018Z,100884.80
2022-08-02T17:20:03.670Z,100879.20
2022-08-02T17:22:31.329Z,100870.00
2022-08-02T17:25:05.958Z,100857.80
2022-08-02T17:27:39.408Z,100850.60
2022-08-02T17:30:10.964Z,100844.20
2022-08-02T17:32:39.738Z,100836.80
2022-08-02T17:35:10.071Z,100835.40
2022-08-02T17:37:41.796Z,100836.80
2022-08-02T17:40:10.541Z,100834.40
2022-08-02T17:42:38.942Z,100828.60
2022-08-02T17:45:16.587Z,100826.20
2022-08-02T17:48:04.531Z,100826.80
2022-08-02T17:50:34.781Z,100824.80
2022-08-02T17:53:02.607Z,100821.80
2022-08-02T17:58:18.042Z,100818.60
2022-08-02T18:00:46.835Z,100825.00
2022-08-02T18:03:14.513Z,100822.40
2022-08-02T18:08:30.447Z,100820.20
2022-08-02T18:10:58.517Z,100820.80
2022-08-02T18:13:26.229Z,100822.40
2022-08-02T18:16:00.668Z,100816.40
2022-08-02T18:18:29.634Z,100812.40
2022-08-02T18:21:16.097Z,100815.80
2022-08-02T18:23:48.820Z,100815.40
2022-08-02T18:26:20.886Z,100812.00
2022-08-02T18:28:49.260Z,100806.20
2022-08-02T18:31:22.342Z,100803.60
2022-08-02T18:36:48.365Z,100793.60
2022-08-02T18:39:17.249Z,100793.80
2022-08-02T18:41:45.261Z,100790.40
2022-08-02T18:44:16.820Z,100795.00
2022-08-02T18:46:49.386Z,100783.40
2022-08-02T18:49:17.490Z,100784.80
2022-08-02T18:51:46.087Z,100778.60
2022-08-02T18:54:14.847Z,100773.80
2022-08-02T18:56:47.386Z,100765.00
2022-08-02T18:59:15.997Z,100768.20
2022-08-02T19:01:51.156Z,100771.40
2022-08-02T19:04:27.506Z,100760.00
2022-08-02T19:07:03.893Z,100763.00
2022-08-02T19:09:40.081Z,100761.80
2022-08-02T19:12:12.092Z,100771.40
2022-08-02T19:14:41.064Z,100761.00
2022-08-02T19:17:15.900Z,100762.00
2022-08-02T19:19:57.271Z,100755.80
2022-08-02T19:22:25.438Z,100752.80
2022-08-02T19:25:01.464Z,100765.40
2022-08-02T19:27:32.640Z,100754.40
2022-08-02T19:30:07.770Z,100746.40
2022-08-02T19:32:41.946Z,100735.00
2022-08-02T19:35:30.761Z,100729.00
2022-08-02T19:38:10.649Z,100733.20
2022-08-02T19:40:43.457Z,100742.00
2022-08-02T19:44:26.776Z,100741.60
2022-08-02T19:46:00.463Z,100733.00
2022-08-02T19:48:29.007Z,100731.40
2022-08-02T19:51:01.030Z,100731.20
2022-08-02T19:53:46.644Z,100736.80
2022-08-02T19:56:25.134Z,100734.80
2022-08-02T19:58:57.582Z,100734.60
2022-08-02T20:01:36.621Z,100730.00
2022-08-02T20:04:12.923Z,100726.80
2022-08-02T20:06:45.957Z,100720.20
2022-08-02T20:09:17.193Z,100710.80
2022-08-02T20:11:54.517Z,100708.60
2022-08-02T20:14:26.867Z,100705.40
2022-08-02T20:16:57.754Z,100709.40
2022-08-02T20:19:29.531Z,100704.00
2022-08-02T20:22:00.277Z,100696.20
2022-08-02T20:24:29.767Z,100686.40
2022-08-02T20:26:58.949Z,100685.40
2022-08-02T20:29:43.219Z,100688.20
2022-08-02T20:32:14.939Z,100695.20
2022-08-02T20:34:43.098Z,100686.00
2022-08-02T20:37:56.255Z,100683.60
2022-08-02T20:40:06.277Z,100680.40
2022-08-02T20:42:36.650Z,100679.00
2022-08-02T20:45:06.387Z,100683.40
2022-08-02T20:47:39.269Z,100677.80
2022-08-02T20:50:42.350Z,100679.20
2022-08-02T20:53:23.207Z,100674.00
2022-08-02T20:55:55.720Z,100666.20
2022-08-02T20:58:26.832Z,100659.20
2022-08-02T21:00:59.792Z,100664.20
2022-08-02T21:03:38.973Z,100675.20
2022-08-02T21:06:14.714Z,100665.80
2022-08-02T21:08:46.221Z,100666.80
2022-08-02T21:11:14.436Z,100669.20
2022-08-02T21:13:46.419Z,100667.00
2022-08-02T21:16:18.876Z,100661.60
2022-08-02T21:18:51.375Z,100656.00
2022-08-02T21:21:19.157Z,100650.00
2022-08-02T21:23:48.959Z,100651.80
2022-08-02T21:26:25.932Z,100656.40
2022-08-02T21:29:03.647Z,100648.60
2022-08-02T21:31:36.148Z,100636.60
2022-08-02T21:34:22.049Z,100623.80
2022-08-02T21:36:54.091Z,100628.20
2022-08-02T21:39:22.295Z,100629.40
2022-08-02T21:41:50.442Z,100628.60
2022-08-02T21:44:22.096Z,100629.40
2022-08-02T21:46:57.533Z,100627.60
2022-08-02T21:50:09.420Z,100629.20
2022-08-02T21:52:16.364Z,100635.80
2022-08-02T21:54:45.483Z,100634.60
2022-08-02T21:57:16.198Z,100636.60
2022-08-02T21:59:47.421Z,100637.20
2022-08-02T22:02:22.274Z,100635.00
2022-08-02T22:04:59.310Z,100641.60
2022-08-02T22:07:30.820Z,100644.80
2022-08-02T22:10:09.142Z,100646.60
2022-08-02T22:12:37.516Z,100643.80
2022-08-02T22:15:10.288Z,100639.40
2022-08-02T22:17:53.293Z,100640.20
2022-08-02T22:20:26.506Z,100637.00
2022-08-02T22:22:57.098Z,100639.60
2022-08-02T22:25:36.187Z,100637.60
2022-08-02T22:28:38.085Z,100641.00
2022-08-02T22:31:00.003Z,100632.00
2022-08-02T22:34:00.504Z,100634.60
2022-08-02T22:36:31.818Z,100638.20
2022-08-02T22:39:01.879Z,100636.00
2022-08-02T22:42:01.266Z,100639.60
2022-08-02T22:44:18.908Z,100638.80
2022-08-02T22:46:50.277Z,100629.20
2022-08-02T22:49:37.073Z,100633.40
2022-08-02T22:52:06.921Z,100637.40
2022-08-02T22:54:34.738Z,100638.80
2022-08-02T22:57:02.378Z,100636.20
2022-08-02T22:58:43.168Z,100819.80
2022-08-02T22:58:50.426Z,100821.00
2022-08-02T22:58:59.790Z,100803.60
2022-08-02T22:59:39.114Z,100632.60
2022-08-02T23:02:09.624Z,100628.00
2022-08-02T23:04:38.169Z,100619.20
2022-08-02T23:07:06.429Z,100619.40
2022-08-02T23:09:35.144Z,100625.80
2022-08-02T23:12:03.658Z,100618.80
2022-08-02T23:14:31.602Z,100619.20
2022-08-02T23:17:18.253Z,100616.40
2022-08-02T23:19:52.036Z,100618.60
2022-08-02T23:22:29.775Z,100614.40
2022-08-02T23:25:01.990Z,100613.00
2022-08-02T23:27:32.202Z,100616.00
2022-08-02T23:30:01.245Z,100621.20
2022-08-02T23:32:29.206Z,100620.20
2022-08-02T23:34:58.173Z,100618.00
2022-08-02T23:37:26.978Z,100615.20
2022-08-02T23:39:55.365Z,100612.20
2022-08-02T23:42:25.275Z,100613.00
2022-08-02T23:44:54.272Z,100612.00
2022-08-02T23:47:22.164Z,100614.80
2022-08-02T23:49:50.626Z,100604.20
2022-08-02T23:52:18.687Z,100600.20
2022-08-02T23:54:46.958Z,100600.80
2022-08-02T23:57:20.318Z,100594.20
2022-08-02T23:59:52.370Z,100587.40
